sensor_id;sensor_type;location;lat;lon;timestamp;temperature;humidity
8892;DHT22;4482;54.332;10.118;2022-09-27T00:01:21;10.80;99.90
8892;DHT22;4482;54.332;10.118;2022-09-27T00:03:48;10.80;99.90
8892;DHT22;4482;54.332;10.118;2022-09-27T00:06:22;10.80;99.90
8892;DHT22;4482;54.332;10.118;2022-09-27T00:08:50;10.80;99.90
8892;DHT22;4482;54.332;10.118;2022-09-27T00:11:22;10.70;99.90
8892;DHT22;4482;54.332;10.118;2022-09-27T00:13:51;10.80;99.90
8892;DHT22;4482;54.332;10.118;2022-09-27T00:16:17;10.70;99.90
8892;DHT22;4482;54.332;10.118;2022-09-27T00:18:44;10.70;99.90
8892;DHT22;4482;54.332;10.118;2022-09-27T00:21:12;10.70;99.90
8892;DHT22;4482;54.332;10.118;2022-09-27T00:23:40;10.70;99.90
8892;DHT22;4482;54.332;10.118;2022-09-27T00:26:10;10.70;99.90
8892;DHT22;4482;54.332;10.118;2022-09-27T00:28:37;10.70;99.90
8892;DHT22;4482;54.332;10.118;2022-09-27T00:31:04;10.70;99.90
8892;DHT22;4482;54.332;10.118;2022-09-27T00:33:36;10.70;99.90
8892;DHT22;4482;54.332;10.118;2022-09-27T00:36:04;10.70;99.90
8892;DHT22;4482;54.332;10.118;2022-09-27T00:38:31;10.70;99.90
8892;DHT22;4482;54.332;10.118;2022-09-27T00:40:59;10.80;99.90
8892;DHT22;4482;54.332;10.118;2022-09-27T00:43:42;10.70;99.90
8892;DHT22;4482;54.332;10.118;2022-09-27T00:46:10;10.70;99.90
8892;DHT22;4482;54.332;10.118;2022-09-27T00:48:40;10.70;99.90
8892;DHT22;4482;54.332;10.118;2022-09-27T00:51:08;10.70;99.90
8892;DHT22;4482;54.332;10.118;2022-09-27T00:53:40;10.70;99.90
8892;DHT22;4482;54.332;10.118;2022-09-27T00:56:17;10.80;99.90
8892;DHT22;4482;54.332;10.118;2022-09-27T00:58:49;10.70;99.90
8892;DHT22;4482;54.332;10.118;2022-09-27T01:01:18;10.70;99.90
8892;DHT22;4482;54.332;10.118;2022-09-27T01:03:49;10.70;99.90
8892;DHT22;4482;54.332;10.118;2022-09-27T01:06:19;10.70;99.90
8892;DHT22;4482;54.332;10.118;2022-09-27T01:08:47;10.70;99.90
8892;DHT22;4482;54.332;10.118;2022-09-27T01:11:21;10.70;99.90
8892;DHT22;4482;54.332;10.118;2022-09-27T01:14:03;10.70;99.90
8892;DHT22;4482;54.332;10.118;2022-09-27T01:16:40;10.70;99.90
8892;DHT22;4482;54.332;10.118;2022-09-27T01:19:19;10.70;99.90
8892;DHT22;4482;54.332;10.118;2022-09-27T01:21:57;10.70;99.90
8892;DHT22;4482;54.332;10.118;2022-09-27T01:25:01;10.70;99.90
8892;DHT22;4482;54.332;10.118;2022-09-27T01:28:03;10.70;99.90
8892;DHT22;4482;54.332;10.118;2022-09-27T01:30:43;10.70;99.90
8892;DHT22;4482;54.332;10.118;2022-09-27T01:33:24;10.70;99.90
8892;DHT22;4482;54.332;10.118;2022-09-27T01:36:07;10.70;99.90
8892;DHT22;4482;54.332;10.118;2022-09-27T01:38:44;10.70;99.90
8892;DHT22;4482;54.332;10.118;2022-09-27T01:41:23;10.80;99.90
8892;DHT22;4482;54.332;10.118;2022-09-27T01:43:58;10.70;99.90
8892;DHT22;4482;54.332;10.118;2022-09-27T01:46:32;10.70;99.90
8892;DHT22;4482;54.332;10.118;2022-09-27T01:49:03;10.70;99.90
8892;DHT22;4482;54.332;10.118;2022-09-27T01:51:36;10.70;99.90
8892;DHT22;4482;54.332;10.118;2022-09-27T01:54:05;10.70;99.90
8892;DHT22;4482;54.332;10.118;2022-09-27T01:56:37;10.70;99.90
8892;DHT22;4482;54.332;10.118;2022-09-27T01:59:10;10.70;99.90
8892;DHT22;4482;54.332;10.118;2022-09-27T02:01:40;10.70;99.90
8892;DHT22;4482;54.332;10.118;2022-09-27T02:04:12;10.70;99.90
8892;DHT22;4482;54.332;10.118;2022-09-27T02:06:43;10.70;99.90
8892;DHT22;4482;54.332;10.118;2022-09-27T02:09:13;10.70;99.90
8892;DHT22;4482;54.332;10.118;2022-09-27T02:11:45;10.70;99.90
8892;DHT22;4482;54.332;10.118;2022-09-27T02:14:17;10.70;99.90
8892;DHT22;4482;54.332;10.118;2022-09-27T02:16:49;10.70;99.90
8892;DHT22;4482;54.332;10.118;2022-09-27T02:19:23;10.60;99.90
8892;DHT22;4482;54.332;10.118;2022-09-27T02:21:58;10.70;99.90
8892;DHT22;4482;54.332;10.118;2022-09-27T02:24:34;10.70;99.90
8892;DHT22;4482;54.332;10.118;2022-09-27T02:27:08;10.70;99.90
8892;DHT22;4482;54.332;10.118;2022-09-27T02:29:41;10.70;99.90
8892;DHT22;4482;54.332;10.118;2022-09-27T02:32:11;10.70;99.90
8892;DHT22;4482;54.332;10.118;2022-09-27T02:34:38;10.70;99.90
8892;DHT22;4482;54.332;10.118;2022-09-27T02:37:06;10.70;99.90
8892;DHT22;4482;54.332;10.118;2022-09-27T02:39:33;10.60;99.90
8892;DHT22;4482;54.332;10.118;2022-09-27T02:42:00;10.60;99.90
8892;DHT22;4482;54.332;10.118;2022-09-27T02:44:28;10.60;99.90
8892;DHT22;4482;54.332;10.118;2022-09-27T02:47:21;10.60;99.90
8892;DHT22;4482;54.332;10.118;2022-09-27T02:50:00;10.70;99.90
8892;DHT22;4482;54.332;10.118;2022-09-27T02:52:40;10.60;99.90
8892;DHT22;4482;54.332;10.118;2022-09-27T02:55:13;10.60;99.90
8892;DHT22;4482;54.332;10.118;2022-09-27T02:57:51;10.60;99.90
8892;DHT22;4482;54.332;10.118;2022-09-27T03:00:27;10.60;99.90
8892;DHT22;4482;54.332;10.118;2022-09-27T03:03:02;10.60;99.90
8892;DHT22;4482;54.332;10.118;2022-09-27T03:05:35;10.60;99.90
8892;DHT22;4482;54.332;10.118;2022-09-27T03:08:04;10.60;99.90
8892;DHT22;4482;54.332;10.118;2022-09-27T03:10:31;10.60;99.90
8892;DHT22;4482;54.332;10.118;2022-09-27T03:12:58;10.60;99.90
8892;DHT22;4482;54.332;10.118;2022-09-27T03:15:24;10.60;99.90
8892;DHT22;4482;54.332;10.118;2022-09-27T03:17:51;10.60;99.90
8892;DHT22;4482;54.332;10.118;2022-09-27T03:20:20;10.60;99.90
8892;DHT22;4482;54.332;10.118;2022-09-27T03:22:46;10.60;99.90
8892;DHT22;4482;54.332;10.118;2022-09-27T03:25:13;10.60;99.90
8892;DHT22;4482;54.332;10.118;2022-09-27T03:27:40;10.60;99.90
8892;DHT22;4482;54.332;10.118;2022-09-27T03:30:09;10.60;99.90
8892;DHT22;4482;54.332;10.118;2022-09-27T03:32:36;10.50;99.90
8892;DHT22;4482;54.332;10.118;2022-09-27T03:35:03;10.50;99.90
8892;DHT22;4482;54.332;10.118;2022-09-27T03:37:32;10.50;99.90
8892;DHT22;4482;54.332;10.118;2022-09-27T03:39:58;10.50;99.90
8892;DHT22;4482;54.332;10.118;2022-09-27T03:42:25;10.50;99.90
8892;DHT22;4482;54.332;10.118;2022-09-27T03:44:52;10.50;99.90
8892;DHT22;4482;54.332;10.118;2022-09-27T03:47:19;10.50;99.90
8892;DHT22;4482;54.332;10.118;2022-09-27T03:49:46;10.50;99.90
8892;DHT22;4482;54.332;10.118;2022-09-27T03:52:14;10.50;99.90
8892;DHT22;4482;54.332;10.118;2022-09-27T03:54:42;10.50;99.90
8892;DHT22;4482;54.332;10.118;2022-09-27T03:57:09;10.50;99.90
8892;DHT22;4482;54.332;10.118;2022-09-27T03:59:36;10.50;99.90
8892;DHT22;4482;54.332;10.118;2022-09-27T04:02:03;10.50;99.90
8892;DHT22;4482;54.332;10.118;2022-09-27T04:04:30;10.50;99.90
8892;DHT22;4482;54.332;10.118;2022-09-27T04:06:57;10.50;99.90
8892;DHT22;4482;54.332;10.118;2022-09-27T04:09:24;10.50;99.90
8892;DHT22;4482;54.332;10.118;2022-09-27T04:11:52;10.50;99.90
8892;DHT22;4482;54.332;10.118;2022-09-27T04:14:19;10.50;99.90
8892;DHT22;4482;54.332;10.118;2022-09-27T04:16:46;10.50;99.90
8892;DHT22;4482;54.332;10.118;2022-09-27T04:19:13;10.50;99.90
8892;DHT22;4482;54.332;10.118;2022-09-27T04:21:42;10.50;99.90
8892;DHT22;4482;54.332;10.118;2022-09-27T04:24:09;10.50;99.90
8892;DHT22;4482;54.332;10.118;2022-09-27T04:26:36;10.50;99.90
8892;DHT22;4482;54.332;10.118;2022-09-27T04:29:05;10.60;99.90
8892;DHT22;4482;54.332;10.118;2022-09-27T04:31:34;10.50;99.90
8892;DHT22;4482;54.332;10.118;2022-09-27T04:34:02;10.50;99.90
8892;DHT22;4482;54.332;10.118;2022-09-27T04:36:30;10.50;99.90
8892;DHT22;4482;54.332;10.118;2022-09-27T04:38:57;10.50;99.90
8892;DHT22;4482;54.332;10.118;2022-09-27T04:41:25;10.50;99.90
8892;DHT22;4482;54.332;10.118;2022-09-27T04:43:53;10.50;99.90
8892;DHT22;4482;54.332;10.118;2022-09-27T04:46:22;10.50;99.90
8892;DHT22;4482;54.332;10.118;2022-09-27T04:48:49;10.50;99.90
8892;DHT22;4482;54.332;10.118;2022-09-27T04:51:17;10.50;99.90
8892;DHT22;4482;54.332;10.118;2022-09-27T04:53:44;10.50;99.90
8892;DHT22;4482;54.332;10.118;2022-09-27T04:56:12;10.50;99.90
8892;DHT22;4482;54.332;10.118;2022-09-27T04:58:40;10.50;99.90
8892;DHT22;4482;54.332;10.118;2022-09-27T05:01:08;10.50;99.90
8892;DHT22;4482;54.332;10.118;2022-09-27T05:03:36;10.50;99.90
8892;DHT22;4482;54.332;10.118;2022-09-27T05:06:03;10.40;99.90
8892;DHT22;4482;54.332;10.118;2022-09-27T05:08:30;10.50;99.90
8892;DHT22;4482;54.332;10.118;2022-09-27T05:10:57;10.50;99.90
8892;DHT22;4482;54.332;10.118;2022-09-27T05:13:25;10.50;99.90
8892;DHT22;4482;54.332;10.118;2022-09-27T05:15:52;10.50;99.90
8892;DHT22;4482;54.332;10.118;2022-09-27T05:18:19;10.50;99.90
8892;DHT22;4482;54.332;10.118;2022-09-27T05:20:47;10.40;99.90
8892;DHT22;4482;54.332;10.118;2022-09-27T05:23:14;10.50;99.90
8892;DHT22;4482;54.332;10.118;2022-09-27T05:25:41;10.40;99.90
8892;DHT22;4482;54.332;10.118;2022-09-27T05:28:08;10.40;99.90
8892;DHT22;4482;54.332;10.118;2022-09-27T05:30:35;10.40;99.90
8892;DHT22;4482;54.332;10.118;2022-09-27T05:33:02;10.50;99.90
8892;DHT22;4482;54.332;10.118;2022-09-27T05:35:29;10.50;99.90
8892;DHT22;4482;54.332;10.118;2022-09-27T05:38:00;10.40;99.90
8892;DHT22;4482;54.332;10.118;2022-09-27T05:40:27;10.50;99.90
8892;DHT22;4482;54.332;10.118;2022-09-27T05:42:55;10.50;99.90
8892;DHT22;4482;54.332;10.118;2022-09-27T05:45:23;10.40;99.90
8892;DHT22;4482;54.332;10.118;2022-09-27T05:47:54;10.50;99.90
8892;DHT22;4482;54.332;10.118;2022-09-27T05:50:21;10.50;99.90
8892;DHT22;4482;54.332;10.118;2022-09-27T05:52:48;10.50;99.90
8892;DHT22;4482;54.332;10.118;2022-09-27T05:55:17;10.50;99.90
8892;DHT22;4482;54.332;10.118;2022-09-27T05:57:54;10.50;99.90
8892;DHT22;4482;54.332;10.118;2022-09-27T06:00:21;10.50;99.90
8892;DHT22;4482;54.332;10.118;2022-09-27T06:02:54;10.50;99.90
8892;DHT22;4482;54.332;10.118;2022-09-27T06:05:22;10.50;99.90
8892;DHT22;4482;54.332;10.118;2022-09-27T06:07:49;10.50;99.90
8892;DHT22;4482;54.332;10.118;2022-09-27T06:10:18;10.50;99.90
8892;DHT22;4482;54.332;10.118;2022-09-27T06:12:45;10.60;99.90
8892;DHT22;4482;54.332;10.118;2022-09-27T06:15:12;10.60;99.90
8892;DHT22;4482;54.332;10.118;2022-09-27T06:17:40;10.80;99.90
8892;DHT22;4482;54.332;10.118;2022-09-27T06:20:07;10.80;99.90
8892;DHT22;4482;54.332;10.118;2022-09-27T06:22:35;10.80;99.90
8892;DHT22;4482;54.332;10.118;2022-09-27T06:25:02;10.90;99.90
8892;DHT22;4482;54.332;10.118;2022-09-27T06:27:31;10.90;99.90
8892;DHT22;4482;54.332;10.118;2022-09-27T06:29:58;10.90;99.90
8892;DHT22;4482;54.332;10.118;2022-09-27T06:32:24;10.90;99.90
8892;DHT22;4482;54.332;10.118;2022-09-27T06:34:51;10.90;99.90
8892;DHT22;4482;54.332;10.118;2022-09-27T06:37:18;10.90;99.90
8892;DHT22;4482;54.332;10.118;2022-09-27T06:39:45;10.90;99.90
8892;DHT22;4482;54.332;10.118;2022-09-27T06:42:13;10.90;99.90
8892;DHT22;4482;54.332;10.118;2022-09-27T06:44:42;10.90;99.90
8892;DHT22;4482;54.332;10.118;2022-09-27T06:47:09;10.80;99.90
8892;DHT22;4482;54.332;10.118;2022-09-27T06:49:36;10.80;99.90
8892;DHT22;4482;54.332;10.118;2022-09-27T06:52:05;10.70;99.90
8892;DHT22;4482;54.332;10.118;2022-09-27T06:54:31;10.80;99.90
8892;DHT22;4482;54.332;10.118;2022-09-27T06:56:58;10.80;99.90
8892;DHT22;4482;54.332;10.118;2022-09-27T06:59:25;10.80;99.90
8892;DHT22;4482;54.332;10.118;2022-09-27T07:02:10;10.80;99.90
8892;DHT22;4482;54.332;10.118;2022-09-27T07:04:38;11.00;99.90
8892;DHT22;4482;54.332;10.118;2022-09-27T07:07:05;11.00;99.90
8892;DHT22;4482;54.332;10.118;2022-09-27T07:09:32;11.00;99.90
8892;DHT22;4482;54.332;10.118;2022-09-27T07:11:59;11.10;99.90
8892;DHT22;4482;54.332;10.118;2022-09-27T07:14:26;11.00;99.90
8892;DHT22;4482;54.332;10.118;2022-09-27T07:16:54;11.00;99.90
8892;DHT22;4482;54.332;10.118;2022-09-27T07:19:23;11.10;99.90
8892;DHT22;4482;54.332;10.118;2022-09-27T07:21:50;11.00;99.90
8892;DHT22;4482;54.332;10.118;2022-09-27T07:24:17;11.10;99.90
8892;DHT22;4482;54.332;10.118;2022-09-27T07:26:44;11.10;99.90
8892;DHT22;4482;54.332;10.118;2022-09-27T07:29:12;11.20;99.90
8892;DHT22;4482;54.332;10.118;2022-09-27T07:31:39;11.20;99.90
8892;DHT22;4482;54.332;10.118;2022-09-27T07:34:07;11.30;99.90
8892;DHT22;4482;54.332;10.118;2022-09-27T07:36:37;11.30;99.90
8892;DHT22;4482;54.332;10.118;2022-09-27T07:39:04;11.30;99.90
8892;DHT22;4482;54.332;10.118;2022-09-27T07:41:31;11.20;99.90
8892;DHT22;4482;54.332;10.118;2022-09-27T07:43:58;11.20;99.90
8892;DHT22;4482;54.332;10.118;2022-09-27T07:46:25;11.20;99.90
8892;DHT22;4482;54.332;10.118;2022-09-27T07:48:52;11.20;99.90
8892;DHT22;4482;54.332;10.118;2022-09-27T07:51:19;11.20;99.90
8892;DHT22;4482;54.332;10.118;2022-09-27T07:53:47;11.30;99.90
8892;DHT22;4482;54.332;10.118;2022-09-27T07:56:14;11.20;99.90
8892;DHT22;4482;54.332;10.118;2022-09-27T07:58:41;11.20;99.90
8892;DHT22;4482;54.332;10.118;2022-09-27T08:01:08;11.30;99.90
8892;DHT22;4482;54.332;10.118;2022-09-27T08:03:35;11.20;99.90
8892;DHT22;4482;54.332;10.118;2022-09-27T08:06:03;11.30;99.90
8892;DHT22;4482;54.332;10.118;2022-09-27T08:08:30;11.40;99.90
8892;DHT22;4482;54.332;10.118;2022-09-27T08:10:58;11.40;99.90
8892;DHT22;4482;54.332;10.118;2022-09-27T08:13:25;11.40;99.90
8892;DHT22;4482;54.332;10.118;2022-09-27T08:15:52;11.40;99.90
8892;DHT22;4482;54.332;10.118;2022-09-27T08:18:19;11.30;99.90
8892;DHT22;4482;54.332;10.118;2022-09-27T08:20:48;11.40;99.90
8892;DHT22;4482;54.332;10.118;2022-09-27T08:23:15;11.30;99.90
8892;DHT22;4482;54.332;10.118;2022-09-27T08:25:42;11.30;99.90
8892;DHT22;4482;54.332;10.118;2022-09-27T08:28:10;11.30;99.90
8892;DHT22;4482;54.332;10.118;2022-09-27T08:30:37;11.30;99.90
8892;DHT22;4482;54.332;10.118;2022-09-27T08:33:04;11.20;99.90
8892;DHT22;4482;54.332;10.118;2022-09-27T08:35:31;11.20;99.90
8892;DHT22;4482;54.332;10.118;2022-09-27T08:38:00;11.30;99.90
8892;DHT22;4482;54.332;10.118;2022-09-27T08:40:49;11.30;99.90
8892;DHT22;4482;54.332;10.118;2022-09-27T08:43:28;11.50;99.90
8892;DHT22;4482;54.332;10.118;2022-09-27T08:46:09;11.60;99.90
8892;DHT22;4482;54.332;10.118;2022-09-27T08:48:39;11.80;99.90
8892;DHT22;4482;54.332;10.118;2022-09-27T08:51:10;11.70;99.90
8892;DHT22;4482;54.332;10.118;2022-09-27T08:53:41;11.80;99.90
8892;DHT22;4482;54.332;10.118;2022-09-27T08:56:09;11.80;99.90
8892;DHT22;4482;54.332;10.118;2022-09-27T08:58:42;12.00;99.90
8892;DHT22;4482;54.332;10.118;2022-09-27T09:01:13;12.10;99.90
8892;DHT22;4482;54.332;10.118;2022-09-27T09:03:44;12.10;99.90
8892;DHT22;4482;54.332;10.118;2022-09-27T09:06:17;12.10;99.90
8892;DHT22;4482;54.332;10.118;2022-09-27T09:08:55;12.10;99.90
8892;DHT22;4482;54.332;10.118;2022-09-27T09:11:36;12.00;99.90
8892;DHT22;4482;54.332;10.118;2022-09-27T09:14:52;11.90;99.90
8892;DHT22;4482;54.332;10.118;2022-09-27T09:17:33;12.10;99.90
8892;DHT22;4482;54.332;10.118;2022-09-27T09:20:15;12.10;99.90
8892;DHT22;4482;54.332;10.118;2022-09-27T09:22:59;12.20;99.90
8892;DHT22;4482;54.332;10.118;2022-09-27T09:25:35;12.30;99.90
8892;DHT22;4482;54.332;10.118;2022-09-27T09:28:16;12.20;99.90
8892;DHT22;4482;54.332;10.118;2022-09-27T09:30:55;12.30;99.90
8892;DHT22;4482;54.332;10.118;2022-09-27T09:33:28;12.40;99.90
8892;DHT22;4482;54.332;10.118;2022-09-27T09:35:58;12.40;99.90
8892;DHT22;4482;54.332;10.118;2022-09-27T09:38:33;12.50;99.90
8892;DHT22;4482;54.332;10.118;2022-09-27T09:41:04;12.50;99.90
8892;DHT22;4482;54.332;10.118;2022-09-27T09:43:36;12.40;99.90
8892;DHT22;4482;54.332;10.118;2022-09-27T09:46:09;12.50;99.90
8892;DHT22;4482;54.332;10.118;2022-09-27T09:48:41;12.60;99.90
8892;DHT22;4482;54.332;10.118;2022-09-27T09:51:14;12.60;99.90
8892;DHT22;4482;54.332;10.118;2022-09-27T09:53:50;12.60;99.90
8892;DHT22;4482;54.332;10.118;2022-09-27T09:56:23;12.50;99.90
8892;DHT22;4482;54.332;10.118;2022-09-27T09:58:55;12.40;99.90
8892;DHT22;4482;54.332;10.118;2022-09-27T10:01:27;12.30;99.90
8892;DHT22;4482;54.332;10.118;2022-09-27T10:03:55;12.10;99.90
8892;DHT22;4482;54.332;10.118;2022-09-27T10:06:24;11.90;99.90
8892;DHT22;4482;54.332;10.118;2022-09-27T10:08:52;11.70;99.90
8892;DHT22;4482;54.332;10.118;2022-09-27T10:11:23;11.60;99.90
8892;DHT22;4482;54.332;10.118;2022-09-27T10:13:50;11.60;99.90
8892;DHT22;4482;54.332;10.118;2022-09-27T10:16:18;11.50;99.90
8892;DHT22;4482;54.332;10.118;2022-09-27T10:18:48;11.60;99.90
8892;DHT22;4482;54.332;10.118;2022-09-27T10:21:20;11.70;99.90
8892;DHT22;4482;54.332;10.118;2022-09-27T10:24:05;11.80;99.90
8892;DHT22;4482;54.332;10.118;2022-09-27T10:26:33;12.00;99.90
8892;DHT22;4482;54.332;10.118;2022-09-27T10:29:14;12.10;99.90
8892;DHT22;4482;54.332;10.118;2022-09-27T10:31:42;12.20;99.90
8892;DHT22;4482;54.332;10.118;2022-09-27T10:34:22;12.20;99.90
8892;DHT22;4482;54.332;10.118;2022-09-27T10:37:02;12.30;99.90
8892;DHT22;4482;54.332;10.118;2022-09-27T10:39:30;12.40;99.90
8892;DHT22;4482;54.332;10.118;2022-09-27T10:41:57;12.40;99.90
8892;DHT22;4482;54.332;10.118;2022-09-27T10:44:25;12.50;99.90
8892;DHT22;4482;54.332;10.118;2022-09-27T10:46:55;12.60;99.90
8892;DHT22;4482;54.332;10.118;2022-09-27T10:49:27;12.60;99.90
8892;DHT22;4482;54.332;10.118;2022-09-27T10:51:56;12.50;99.90
8892;DHT22;4482;54.332;10.118;2022-09-27T10:54:25;12.50;99.90
8892;DHT22;4482;54.332;10.118;2022-09-27T10:56:55;12.60;99.90
8892;DHT22;4482;54.332;10.118;2022-09-27T10:59:22;12.60;99.90
8892;DHT22;4482;54.332;10.118;2022-09-27T11:01:50;12.60;99.90
8892;DHT22;4482;54.332;10.118;2022-09-27T11:04:20;12.70;99.90
8892;DHT22;4482;54.332;10.118;2022-09-27T11:06:50;12.90;99.90
8892;DHT22;4482;54.332;10.118;2022-09-27T11:09:20;13.00;99.90
8892;DHT22;4482;54.332;10.118;2022-09-27T11:12:05;12.80;99.90
8892;DHT22;4482;54.332;10.118;2022-09-27T11:14:34;12.80;99.90
8892;DHT22;4482;54.332;10.118;2022-09-27T11:17:12;12.70;99.90
8892;DHT22;4482;54.332;10.118;2022-09-27T11:20:00;12.70;99.90
8892;DHT22;4482;54.332;10.118;2022-09-27T11:22:43;12.70;99.90
8892;DHT22;4482;54.332;10.118;2022-09-27T11:25:19;12.70;99.90
8892;DHT22;4482;54.332;10.118;2022-09-27T11:27:58;12.80;99.90
8892;DHT22;4482;54.332;10.118;2022-09-27T11:30:34;12.70;99.90
8892;DHT22;4482;54.332;10.118;2022-09-27T11:33:19;12.80;99.90
8892;DHT22;4482;54.332;10.118;2022-09-27T11:35:59;12.90;99.90
8892;DHT22;4482;54.332;10.118;2022-09-27T11:38:33;13.00;99.90
8892;DHT22;4482;54.332;10.118;2022-09-27T11:41:21;13.00;99.90
8892;DHT22;4482;54.332;10.118;2022-09-27T11:44:16;13.00;99.90
8892;DHT22;4482;54.332;10.118;2022-09-27T11:46:57;13.10;99.90
8892;DHT22;4482;54.332;10.118;2022-09-27T11:49:44;13.10;99.90
8892;DHT22;4482;54.332;10.118;2022-09-27T11:52:24;13.20;99.90
8892;DHT22;4482;54.332;10.118;2022-09-27T11:55:14;13.20;99.90
8892;DHT22;4482;54.332;10.118;2022-09-27T11:57:47;13.30;99.90
8892;DHT22;4482;54.332;10.118;2022-09-27T12:00:19;13.30;99.90
8892;DHT22;4482;54.332;10.118;2022-09-27T12:06:06;13.40;99.90
8892;DHT22;4482;54.332;10.118;2022-09-27T12:08:48;13.30;99.90
8892;DHT22;4482;54.332;10.118;2022-09-27T12:11:22;13.20;99.90
8892;DHT22;4482;54.332;10.118;2022-09-27T12:13:53;13.20;99.90
8892;DHT22;4482;54.332;10.118;2022-09-27T12:16:23;13.20;99.90
8892;DHT22;4482;54.332;10.118;2022-09-27T12:18:52;13.10;99.90
8892;DHT22;4482;54.332;10.118;2022-09-27T12:21:20;13.10;99.90
8892;DHT22;4482;54.332;10.118;2022-09-27T12:23:49;13.30;99.90
8892;DHT22;4482;54.332;10.118;2022-09-27T12:26:22;13.30;99.90
8892;DHT22;4482;54.332;10.118;2022-09-27T12:28:53;13.40;99.90
8892;DHT22;4482;54.332;10.118;2022-09-27T12:31:25;13.40;99.90
8892;DHT22;4482;54.332;10.118;2022-09-27T12:33:58;13.30;99.90
8892;DHT22;4482;54.332;10.118;2022-09-27T12:36:31;13.30;99.90
8892;DHT22;4482;54.332;10.118;2022-09-27T12:39:05;13.30;99.90
8892;DHT22;4482;54.332;10.118;2022-09-27T12:41:40;13.10;99.90
8892;DHT22;4482;54.332;10.118;2022-09-27T12:44:09;13.10;99.90
8892;DHT22;4482;54.332;10.118;2022-09-27T12:46:54;13.10;99.90
8892;DHT22;4482;54.332;10.118;2022-09-27T12:49:28;12.90;99.90
8892;DHT22;4482;54.332;10.118;2022-09-27T12:52:00;12.80;99.90
8892;DHT22;4482;54.332;10.118;2022-09-27T12:54:41;12.70;99.90
8892;DHT22;4482;54.332;10.118;2022-09-27T12:57:21;12.60;99.90
8892;DHT22;4482;54.332;10.118;2022-09-27T13:00:03;12.50;99.90
8892;DHT22;4482;54.332;10.118;2022-09-27T13:06:14;12.40;99.90
8892;DHT22;4482;54.332;10.118;2022-09-27T13:09:16;12.40;99.90
8892;DHT22;4482;54.332;10.118;2022-09-27T13:11:48;12.30;99.90
8892;DHT22;4482;54.332;10.118;2022-09-27T13:14:22;12.20;99.90
8892;DHT22;4482;54.332;10.118;2022-09-27T13:16:50;12.20;99.90
8892;DHT22;4482;54.332;10.118;2022-09-27T13:19:37;12.20;99.90
8892;DHT22;4482;54.332;10.118;2022-09-27T13:22:08;12.20;99.90
8892;DHT22;4482;54.332;10.118;2022-09-27T13:24:56;12.20;99.90
8892;DHT22;4482;54.332;10.118;2022-09-27T13:27:42;12.20;99.90
8892;DHT22;4482;54.332;10.118;2022-09-27T13:33:31;12.10;99.90
8892;DHT22;4482;54.332;10.118;2022-09-27T13:39:00;12.10;99.90
8892;DHT22;4482;54.332;10.118;2022-09-27T13:41:39;12.10;99.90
8892;DHT22;4482;54.332;10.118;2022-09-27T13:44:11;12.10;99.90
8892;DHT22;4482;54.332;10.118;2022-09-27T13:46:48;12.20;99.90
8892;DHT22;4482;54.332;10.118;2022-09-27T13:49:22;12.20;99.90
8892;DHT22;4482;54.332;10.118;2022-09-27T13:51:56;12.10;99.90
8892;DHT22;4482;54.332;10.118;2022-09-27T13:54:39;12.20;99.90
8892;DHT22;4482;54.332;10.118;2022-09-27T14:00:18;12.10;99.90
8892;DHT22;4482;54.332;10.118;2022-09-27T14:02:54;12.00;99.90
8892;DHT22;4482;54.332;10.118;2022-09-27T14:05:27;11.90;99.90
8892;DHT22;4482;54.332;10.118;2022-09-27T14:07:58;11.80;99.90
8892;DHT22;4482;54.332;10.118;2022-09-27T14:10:28;11.70;99.90
8892;DHT22;4482;54.332;10.118;2022-09-27T14:12:58;11.60;99.90
8892;DHT22;4482;54.332;10.118;2022-09-27T14:15:27;11.60;99.90
8892;DHT22;4482;54.332;10.118;2022-09-27T14:17:55;11.60;99.90
8892;DHT22;4482;54.332;10.118;2022-09-27T14:20:36;11.60;99.90
8892;DHT22;4482;54.332;10.118;2022-09-27T14:23:04;11.60;99.90
8892;DHT22;4482;54.332;10.118;2022-09-27T14:25:32;11.70;99.90
8892;DHT22;4482;54.332;10.118;2022-09-27T14:27:58;11.70;99.90
8892;DHT22;4482;54.332;10.118;2022-09-27T14:30:27;11.70;99.90
8892;DHT22;4482;54.332;10.118;2022-09-27T14:32:56;11.70;99.90
8892;DHT22;4482;54.332;10.118;2022-09-27T14:35:26;11.70;99.90
8892;DHT22;4482;54.332;10.118;2022-09-27T14:38:15;11.60;99.90
8892;DHT22;4482;54.332;10.118;2022-09-27T14:40:55;11.60;99.90
8892;DHT22;4482;54.332;10.118;2022-09-27T14:43:24;11.60;99.90
8892;DHT22;4482;54.332;10.118;2022-09-27T14:45:56;11.50;99.90
8892;DHT22;4482;54.332;10.118;2022-09-27T14:48:27;11.50;99.90
8892;DHT22;4482;54.332;10.118;2022-09-27T14:50:56;11.40;99.90
8892;DHT22;4482;54.332;10.118;2022-09-27T14:53:28;11.40;99.90
8892;DHT22;4482;54.332;10.118;2022-09-27T14:55:56;11.30;99.90
8892;DHT22;4482;54.332;10.118;2022-09-27T14:58:23;11.40;99.90
8892;DHT22;4482;54.332;10.118;2022-09-27T15:00:52;11.50;99.90
8892;DHT22;4482;54.332;10.118;2022-09-27T15:03:24;11.40;99.90
8892;DHT22;4482;54.332;10.118;2022-09-27T15:05:53;11.50;99.90
8892;DHT22;4482;54.332;10.118;2022-09-27T15:08:22;11.50;99.90
8892;DHT22;4482;54.332;10.118;2022-09-27T15:10:50;11.60;99.90
8892;DHT22;4482;54.332;10.118;2022-09-27T15:13:19;11.70;99.90
8892;DHT22;4482;54.332;10.118;2022-09-27T15:15:46;11.70;99.90
8892;DHT22;4482;54.332;10.118;2022-09-27T15:18:31;11.80;99.90
8892;DHT22;4482;54.332;10.118;2022-09-27T15:21:00;12.00;99.90
8892;DHT22;4482;54.332;10.118;2022-09-27T15:23:28;12.10;99.90
8892;DHT22;4482;54.332;10.118;2022-09-27T15:26:02;12.20;99.90
8892;DHT22;4482;54.332;10.118;2022-09-27T15:28:29;12.20;99.90
8892;DHT22;4482;54.332;10.118;2022-09-27T15:30:59;12.20;99.90
8892;DHT22;4482;54.332;10.118;2022-09-27T15:33:27;12.20;99.90
8892;DHT22;4482;54.332;10.118;2022-09-27T15:35:58;12.20;99.90
8892;DHT22;4482;54.332;10.118;2022-09-27T15:38:29;12.20;99.90
8892;DHT22;4482;54.332;10.118;2022-09-27T15:41:12;12.20;99.90
8892;DHT22;4482;54.332;10.118;2022-09-27T15:43:43;12.20;99.90
8892;DHT22;4482;54.332;10.118;2022-09-27T15:46:34;12.10;99.90
8892;DHT22;4482;54.332;10.118;2022-09-27T15:49:20;12.10;99.90
8892;DHT22;4482;54.332;10.118;2022-09-27T15:51:48;12.00;99.90
8892;DHT22;4482;54.332;10.118;2022-09-27T15:54:17;11.90;99.90
8892;DHT22;4482;54.332;10.118;2022-09-27T15:56:47;11.80;99.90
8892;DHT22;4482;54.332;10.118;2022-09-27T15:59:18;11.80;99.90
8892;DHT22;4482;54.332;10.118;2022-09-27T16:01:46;11.80;99.90
8892;DHT22;4482;54.332;10.118;2022-09-27T16:04:13;11.80;99.90
8892;DHT22;4482;54.332;10.118;2022-09-27T16:06:40;11.70;99.90
8892;DHT22;4482;54.332;10.118;2022-09-27T16:09:13;11.60;99.90
8892;DHT22;4482;54.332;10.118;2022-09-27T16:11:42;11.60;99.90
8892;DHT22;4482;54.332;10.118;2022-09-27T16:14:13;11.50;99.90
8892;DHT22;4482;54.332;10.118;2022-09-27T16:16:43;11.50;99.90
8892;DHT22;4482;54.332;10.118;2022-09-27T16:19:11;11.50;99.90
8892;DHT22;4482;54.332;10.118;2022-09-27T16:21:37;11.40;99.90
8892;DHT22;4482;54.332;10.118;2022-09-27T16:24:07;11.40;99.90
8892;DHT22;4482;54.332;10.118;2022-09-27T16:26:34;11.30;99.90
8892;DHT22;4482;54.332;10.118;2022-09-27T16:29:01;11.40;99.90